Time;durP1;ratioP1;P1;durP2;ratioP2;P2;SDS_P1;SDS_P2;PMS_P1;PMS_P2;Temp;Humidity;BMP_temperature;BMP_pressure;BME280_temperature;BME280_humidity;BME280_pressure;Samples;Min_cycle;Max_cycle;Signal;HPM_P1;HPM_P2
2024/03/02 00:01:10;;;;;;;12.77;7.60;;;;;;;3.73;54.03;100238.00;4984960;28;20130;-72
2024/03/02 00:03:40;;;;;;;16.73;8.27;;;;;;;3.64;53.89;100240.78;4992416;28;20037;-70
2024/03/02 00:06:06;;;;;;;12.82;7.07;;;;;;;3.63;54.47;100233.91;4987626;28;20196;-73
2024/03/02 00:08:32;;;;;;;14.40;7.70;;;;;;;3.56;54.45;100231.47;4987335;28;20555;-73
2024/03/02 00:10:59;;;;;;;12.45;6.20;;;;;;;3.47;54.21;100239.41;4993544;28;20129;-74
2024/03/02 00:13:25;;;;;;;12.30;6.88;;;;;;;3.51;54.55;100237.59;4995979;28;20402;-72
2024/03/02 00:15:55;;;;;;;14.25;6.70;;;;;;;3.58;53.70;100237.47;4990593;28;20069;-71
2024/03/02 00:18:26;;;;;;;10.45;5.70;;;;;;;3.53;53.79;100244.44;4978421;28;20045;-67
2024/03/02 00:20:58;;;;;;;10.82;5.65;;;;;;;3.51;53.83;100235.84;4988516;28;20090;-67
2024/03/02 00:23:27;;;;;;;13.43;5.97;;;;;;;3.50;53.91;100226.41;4968403;28;20034;-66
2024/03/02 00:25:54;;;;;;;16.13;6.38;;;;;;;3.50;54.07;100231.59;4976168;28;20335;-66
2024/03/02 00:28:34;;;;;;;8.65;5.93;;;;;;;3.45;54.14;100225.69;4970555;28;20026;-66
2024/03/02 00:31:13;;;;;;;10.80;5.90;;;;;;;3.53;54.12;100217.75;4971414;28;20065;-66
2024/03/02 00:33:46;;;;;;;9.05;4.72;;;;;;;3.56;53.99;100223.72;4973484;28;20110;-66
2024/03/02 00:36:14;;;;;;;9.35;5.28;;;;;;;3.54;53.50;100219.47;4973571;28;20112;-68
2024/03/02 00:38:47;;;;;;;9.43;5.05;;;;;;;3.49;53.69;100210.94;4976324;28;20042;-67
2024/03/02 00:41:22;;;;;;;9.48;5.82;;;;;;;3.38;53.78;100203.41;4978412;28;20052;-66
2024/03/02 00:44:03;;;;;;;11.77;5.78;;;;;;;3.39;53.30;100211.13;4979895;28;20205;-66
2024/03/02 00:46:36;;;;;;;11.75;6.03;;;;;;;3.27;53.57;100215.66;4961703;28;20052;-67
2024/03/02 00:49:04;;;;;;;9.93;5.13;;;;;;;3.29;53.87;100208.78;4985150;28;20057;-66
2024/03/02 00:51:36;;;;;;;9.05;3.85;;;;;;;3.31;53.66;100212.19;4981395;28;20599;-67
2024/03/02 00:54:06;;;;;;;12.60;6.60;;;;;;;3.25;53.75;100207.97;4986426;28;20116;-67
2024/03/02 00:56:32;;;;;;;8.15;4.85;;;;;;;3.24;54.03;100211.41;4979616;28;20045;-67
2024/03/02 00:58:58;;;;;;;12.55;6.45;;;;;;;3.17;53.91;100210.69;4989468;28;20037;-68
2024/03/02 01:01:24;;;;;;;8.50;5.55;;;;;;;3.11;53.82;100197.91;4962465;28;20053;-68
2024/03/02 01:03:50;;;;;;;9.27;6.45;;;;;;;3.09;53.99;100202.25;4966079;28;20037;-68
2024/03/02 01:06:16;;;;;;;11.75;5.82;;;;;;;2.96;54.94;100190.47;4981163;28;20479;-70
2024/03/02 01:08:42;;;;;;;14.00;6.75;;;;;;;2.97;54.42;100187.00;4982490;28;20313;-68
2024/03/02 01:11:07;;;;;;;12.48;6.53;;;;;;;3.14;54.06;100184.94;4967838;28;20057;-69
2024/03/02 01:13:33;;;;;;;10.95;5.95;;;;;;;3.12;53.95;100191.03;4976399;28;20055;-68
2024/03/02 01:16:02;;;;;;;17.65;6.35;;;;;;;2.99;54.51;100190.41;4988056;28;20045;-69
2024/03/02 01:18:27;;;;;;;10.23;5.53;;;;;;;3.05;54.36;100192.03;4985562;28;20084;-70
2024/03/02 01:20:55;;;;;;;10.38;5.68;;;;;;;3.03;54.55;100189.47;5004233;28;20450;-74
2024/03/02 01:23:27;;;;;;;9.40;4.68;;;;;;;3.05;54.64;100198.03;4976985;28;20033;-71
2024/03/02 01:25:52;;;;;;;12.93;5.78;;;;;;;3.12;54.41;100198.75;4966261;28;20053;-71
2024/03/02 01:28:20;;;;;;;10.45;5.90;;;;;;;3.14;54.11;100195.28;4961831;28;20038;-71
2024/03/02 01:30:46;;;;;;;13.18;6.85;;;;;;;3.15;53.99;100202.13;4984880;28;20037;-68
2024/03/02 01:33:11;;;;;;;11.13;6.05;;;;;;;3.21;53.62;100197.72;4982774;28;20048;-69
2024/03/02 01:35:37;;;;;;;13.20;5.78;;;;;;;3.16;53.71;100198.66;4983500;28;20037;-68
2024/03/02 01:38:08;;;;;;;9.55;6.00;;;;;;;3.10;53.99;100193.63;4982139;28;20057;-69
2024/03/02 01:40:34;;;;;;;12.40;6.68;;;;;;;3.11;53.93;100186.72;4983446;28;20037;-68
2024/03/02 01:43:00;;;;;;;9.23;5.38;;;;;;;3.06;54.11;100186.81;4989505;28;20026;-69
2024/03/02 01:45:26;;;;;;;12.88;6.10;;;;;;;3.12;53.48;100178.09;4979681;28;20033;-67
2024/03/02 01:47:52;;;;;;;8.00;5.38;;;;;;;3.03;54.17;100176.56;4987360;28;20033;-68
2024/03/02 01:50:26;;;;;;;12.50;5.90;;;;;;;2.93;54.52;100180.19;4981992;28;20037;-71
2024/03/02 01:52:52;;;;;;;9.18;5.63;;;;;;;2.90;54.24;100169.94;4960382;28;20044;-68
2024/03/02 01:55:17;;;;;;;10.55;6.00;;;;;;;2.92;54.33;100173.34;4957947;28;20037;-68
2024/03/02 01:57:44;;;;;;;11.68;5.55;;;;;;;2.88;54.42;100167.38;4956623;28;20049;-66
2024/03/02 02:00:11;;;;;;;10.38;5.15;;;;;;;2.89;54.54;100163.06;4958052;28;20048;-67
2024/03/02 02:02:39;;;;;;;9.90;5.47;;;;;;;2.82;54.55;100162.31;4949286;28;20053;-71
2024/03/02 02:05:05;;;;;;;9.43;5.13;;;;;;;2.88;54.44;100151.88;4986343;28;20087;-71
2024/03/02 02:07:31;;;;;;;10.75;5.57;;;;;;;2.93;54.20;100155.22;4978200;28;20125;-70
2024/03/02 02:09:57;;;;;;;11.15;5.43;;;;;;;2.89;54.23;100151.03;4990004;28;20037;-70
2024/03/02 02:12:23;;;;;;;9.95;4.65;;;;;;;2.85;54.62;100141.63;4963162;28;20049;-70
2024/03/02 02:14:50;;;;;;;11.50;5.68;;;;;;;2.87;54.24;100145.03;4979749;28;20586;-70
2024/03/02 02:17:16;;;;;;;9.48;5.47;;;;;;;2.85;54.42;100139.06;4983681;28;20128;-70
2024/03/02 02:19:42;;;;;;;8.75;5.10;;;;;;;2.85;54.05;100126.16;4983618;28;20134;-70
2024/03/02 02:22:08;;;;;;;10.15;5.60;;;;;;;2.80;54.54;100127.09;4981274;28;20154;-70
2024/03/02 02:24:34;;;;;;;7.35;4.43;;;;;;;2.90;54.03;100126.91;4979975;28;20038;-70
2024/03/02 02:27:02;;;;;;;11.48;5.97;;;;;;;2.87;54.38;100118.38;4973875;28;20083;-71
2024/03/02 02:29:27;;;;;;;9.05;5.50;;;;;;;2.76;54.66;100122.00;4980328;28;20037;-70
2024/03/02 02:31:53;;;;;;;10.25;4.93;;;;;;;2.72;54.68;100115.22;4982785;28;20041;-70
2024/03/02 02:34:18;;;;;;;9.00;4.88;;;;;;;2.76;54.70;100116.84;4981854;28;20092;-70
2024/03/02 02:36:44;;;;;;;11.05;5.13;;;;;;;2.56;55.14;100109.50;4978023;28;20116;-70
2024/03/02 02:39:19;;;;;;;11.82;5.97;;;;;;;2.68;54.71;100113.56;4996273;28;20104;-70
2024/03/02 02:41:45;;;;;;;13.68;5.40;;;;;;;2.55;55.03;100120.72;4952960;28;20053;-70
2024/03/02 02:44:12;;;;;;;9.23;5.43;;;;;;;2.58;54.94;100109.47;4976223;28;20544;-70
2024/03/02 02:46:41;;;;;;;11.10;5.10;;;;;;;2.64;55.46;100114.50;4976996;28;20045;-71
2024/03/02 02:49:07;;;;;;;10.68;5.47;;;;;;;2.73;54.88;100108.31;4961859;28;20095;-70
2024/03/02 02:51:33;;;;;;;12.85;6.65;;;;;;;2.57;55.12;100111.19;4978005;28;20045;-70
2024/03/02 02:53:58;;;;;;;10.07;5.45;;;;;;;2.47;55.50;100114.00;4970003;28;20068;-71
2024/03/02 02:56:24;;;;;;;15.95;5.28;;;;;;;2.84;54.51;100105.50;4979393;28;20132;-71
2024/03/02 02:58:49;;;;;;;13.13;5.78;;;;;;;2.75;54.94;100106.56;4984414;28;20038;-71
2024/03/02 03:01:17;;;;;;;10.45;5.18;;;;;;;2.87;54.19;100087.41;4984677;28;20045;-71
2024/03/02 03:03:46;;;;;;;13.13;5.85;;;;;;;2.75;54.65;100084.16;4980825;28;20052;-72
2024/03/02 03:06:12;;;;;;;9.15;4.65;;;;;;;2.68;54.83;100085.19;4970381;28;20085;-72
2024/03/02 03:08:37;;;;;;;10.32;5.50;;;;;;;2.60;55.02;100079.34;4981445;28;20439;-71
2024/03/02 03:11:04;;;;;;;12.90;5.63;;;;;;;2.49;55.35;100091.59;4982807;28;20041;-71
2024/03/02 03:13:31;;;;;;;9.45;5.63;;;;;;;2.80;54.62;100090.97;4981721;28;20125;-71
2024/03/02 03:15:57;;;;;;;9.25;5.10;;;;;;;2.80;54.36;100090.97;4980505;28;20418;-71
2024/03/02 03:18:22;;;;;;;8.98;5.90;;;;;;;2.56;55.27;100088.84;4983515;28;20041;-71
2024/03/02 03:20:48;;;;;;;12.65;6.35;;;;;;;2.67;54.84;100086.06;4970801;28;20095;-71
2024/03/02 03:23:17;;;;;;;11.68;6.00;;;;;;;2.79;54.63;100086.72;5003740;28;20414;-72
2024/03/02 03:25:43;;;;;;;10.75;5.05;;;;;;;2.72;54.92;100089.41;4995144;28;22028;-71
2024/03/02 03:28:12;;;;;;;11.90;5.32;;;;;;;2.91;54.15;100094.19;4990958;28;20550;-73
2024/03/02 03:30:38;;;;;;;10.18;5.80;;;;;;;2.81;54.38;100090.09;4998514;28;20033;-72
2024/03/02 03:33:07;;;;;;;11.95;6.60;;;;;;;2.56;54.88;100099.19;4991340;28;20056;-68
2024/03/02 03:35:33;;;;;;;13.10;6.38;;;;;;;2.66;54.91;100104.16;4980424;28;20037;-71
2024/03/02 03:37:58;;;;;;;12.57;6.78;;;;;;;2.62;54.87;100103.34;4986345;28;20040;-68
2024/03/02 03:40:24;;;;;;;9.45;5.63;;;;;;;2.71;54.50;100103.19;4985414;28;20681;-71
2024/03/02 03:42:50;;;;;;;17.48;6.15;;;;;;;2.83;54.03;100106.41;4996959;28;20253;-74
2024/03/02 03:45:16;;;;;;;12.07;5.53;;;;;;;2.45;54.66;100106.25;4984724;28;20033;-72
2024/03/02 03:47:41;;;;;;;13.25;5.85;;;;;;;2.70;54.15;100111.81;4990723;28;20042;-73
2024/03/02 03:50:07;;;;;;;8.73;5.28;;;;;;;2.73;53.96;100106.59;4970101;28;20029;-72
2024/03/02 03:52:33;;;;;;;11.77;5.97;;;;;;;2.87;53.63;100102.91;4985085;28;20099;-72
2024/03/02 03:54:59;;;;;;;10.25;5.88;;;;;;;2.49;54.79;100112.22;4987068;28;20049;-71
2024/03/02 03:57:25;;;;;;;12.65;6.93;;;;;;;2.55;54.68;100112.97;4985160;28;20033;-72
2024/03/02 03:59:51;;;;;;;13.15;6.00;;;;;;;2.57;54.66;100116.34;4986728;28;20433;-72
2024/03/02 04:02:16;;;;;;;8.77;5.70;;;;;;;2.51;54.60;100110.44;4972554;28;20189;-72
2024/03/02 04:04:42;;;;;;;13.77;7.07;;;;;;;2.52;54.43;100122.47;4972732;28;20038;-72
2024/03/02 04:07:07;;;;;;;11.00;6.03;;;;;;;2.51;54.61;100115.59;4994581;28;20104;-72
2024/03/02 04:09:32;;;;;;;11.73;6.22;;;;;;;2.58;54.42;100117.22;4983314;28;20177;-72
2024/03/02 04:11:58;;;;;;;10.68;5.45;;;;;;;2.67;54.13;100119.63;4973598;28;20053;-72
2024/03/02 04:14:23;;;;;;;9.30;5.80;;;;;;;2.58;54.19;100122.38;4964965;28;20065;-72
2024/03/02 04:16:51;;;;;;;9.45;5.93;;;;;;;2.59;54.58;100124.06;4971602;28;20681;-72
2024/03/02 04:19:17;;;;;;;9.88;5.47;;;;;;;2.58;54.28;100124.94;4980058;28;20677;-72
2024/03/02 04:21:42;;;;;;;11.65;6.30;;;;;;;2.56;54.25;100118.97;4971601;28;20128;-73
2024/03/02 04:24:08;;;;;;;15.95;6.70;;;;;;;2.48;54.29;100121.69;4969324;28;20197;-77
2024/03/02 04:26:33;;;;;;;14.90;5.82;;;;;;;2.39;54.52;100126.16;4969517;28;22009;-77
2024/03/02 04:28:59;;;;;;;11.88;5.93;;;;;;;2.56;54.28;100124.13;4972006;28;20037;-76
2024/03/02 04:31:24;;;;;;;13.48;6.30;;;;;;;2.39;54.68;100127.00;4966790;28;20720;-75
2024/03/02 04:33:49;;;;;;;10.90;5.75;;;;;;;2.40;54.74;100126.16;4966947;28;20175;-75
2024/03/02 04:36:15;;;;;;;13.48;6.28;;;;;;;2.27;55.32;100128.09;4968072;28;20069;-75
2024/03/02 04:38:40;;;;;;;11.38;5.95;;;;;;;2.29;54.91;100123.75;4968119;28;20038;-73
2024/03/02 04:41:07;;;;;;;11.68;5.68;;;;;;;2.20;55.37;100135.94;4957748;28;20099;-70
2024/03/02 04:43:33;;;;;;;13.32;6.47;;;;;;;2.36;54.98;100132.22;4963823;28;20077;-71
2024/03/02 04:45:59;;;;;;;11.98;6.68;;;;;;;2.22;55.45;100136.75;4966381;28;20034;-71
2024/03/02 04:48:24;;;;;;;11.93;6.53;;;;;;;2.12;55.60;100138.66;4965646;28;20435;-73
2024/03/02 04:50:50;;;;;;;9.98;6.60;;;;;;;2.18;55.44;100138.56;4955870;28;20100;-67
2024/03/02 04:53:16;;;;;;;13.48;7.35;;;;;;;2.24;55.23;100138.47;4954769;28;20324;-70
2024/03/02 04:58:07;;;;;;;17.75;7.30;;;;;;;2.23;55.27;100138.47;4958057;28;20041;-68
2024/03/02 05:00:33;;;;;;;14.88;7.03;;;;;;;1.91;56.18;100145.88;4959761;28;20430;-69
2024/03/02 05:02:58;;;;;;;11.65;6.65;;;;;;;2.17;55.19;100142.00;4959313;28;20188;-70
2024/03/02 05:05:24;;;;;;;14.18;7.10;;;;;;;2.16;55.67;100145.47;4955136;28;20425;-66
2024/03/02 05:07:49;;;;;;;14.48;7.80;;;;;;;2.14;55.48;100144.63;4961478;28;20042;-70
2024/03/02 05:10:15;;;;;;;15.90;7.22;;;;;;;2.02;55.76;100152.56;4967304;28;20103;-68
2024/03/02 05:15:10;;;;;;;17.55;8.05;;;;;;;2.07;56.22;100155.94;4962061;28;20037;-67
2024/03/02 05:17:39;;;;;;;11.95;7.38;;;;;;;1.97;56.40;100159.53;4963298;28;20186;-71
2024/03/02 05:20:07;;;;;;;15.07;7.30;;;;;;;1.93;56.60;100149.28;4964428;28;20099;-71
2024/03/02 05:22:33;;;;;;;14.93;7.70;;;;;;;1.88;56.43;100156.19;4962451;28;20121;-71
2024/03/02 05:25:00;;;;;;;14.50;7.43;;;;;;;1.96;56.37;100157.84;4963037;28;20099;-70
2024/03/02 05:27:29;;;;;;;13.32;6.03;;;;;;;1.84;56.71;100154.56;4964549;28;20135;-72
2024/03/02 05:29:54;;;;;;;14.60;7.60;;;;;;;1.97;56.18;100154.38;4960757;28;20913;-69
2024/03/02 05:32:20;;;;;;;16.50;8.05;;;;;;;1.91;56.13;100155.31;4967170;28;20049;-70
2024/03/02 05:34:45;;;;;;;20.42;7.40;;;;;;;1.80;56.88;100145.19;4961794;28;20041;-69
2024/03/02 05:37:11;;;;;;;18.05;8.00;;;;;;;1.57;57.28;100153.22;4964791;28;20104;-71
2024/03/02 05:39:37;;;;;;;16.02;8.05;;;;;;;2.00;56.20;100141.41;4965632;28;20076;-67
2024/03/02 05:42:05;;;;;;;16.38;7.38;;;;;;;1.83;56.75;100149.44;4962158;28;20150;-71
2024/03/02 05:44:32;;;;;;;13.52;7.65;;;;;;;2.14;56.36;100152.38;4966426;28;20124;-72
2024/03/02 05:46:57;;;;;;;11.52;6.53;;;;;;;2.24;55.81;100148.78;4958672;28;20071;-70
2024/03/02 05:49:23;;;;;;;15.50;7.32;;;;;;;2.22;55.78;100147.94;4978148;28;20037;-69
2024/03/02 05:51:48;;;;;;;15.60;7.82;;;;;;;2.25;55.72;100152.19;4964616;28;20040;-69
2024/03/02 05:54:14;;;;;;;13.77;7.13;;;;;;;2.19;55.94;100158.28;4964100;28;20044;-71
2024/03/02 05:56:39;;;;;;;14.15;7.25;;;;;;;2.14;56.05;100162.69;4958797;28;20046;-77
2024/03/02 05:59:14;;;;;;;10.85;6.40;;;;;;;2.08;55.85;100160.19;4962201;28;20511;-70
2024/03/02 06:01:42;;;;;;;15.88;8.00;;;;;;;2.14;55.44;100173.84;4957902;28;20038;-70
2024/03/02 06:04:08;;;;;;;10.80;6.68;;;;;;;2.10;55.71;100168.75;4971489;28;20093;-68
2024/03/02 06:06:34;;;;;;;14.73;7.30;;;;;;;1.94;56.63;100173.31;4961209;28;20457;-70
2024/03/02 06:09:02;;;;;;;14.68;7.72;;;;;;;1.69;56.86;100178.81;4956122;28;20037;-70
2024/03/02 06:11:28;;;;;;;13.40;6.97;;;;;;;1.89;56.78;100186.28;4962974;28;20038;-68
2024/03/02 06:13:53;;;;;;;13.27;6.88;;;;;;;1.83;56.82;100196.66;4962053;28;20510;-71
2024/03/02 06:16:19;;;;;;;14.02;7.35;;;;;;;1.96;56.28;100189.59;4961009;28;20646;-70
2024/03/02 06:18:44;;;;;;;12.77;7.30;;;;;;;1.88;56.80;100188.84;4961609;28;20538;-72
2024/03/02 06:21:18;;;;;;;12.80;6.88;;;;;;;1.97;56.24;100191.28;4958818;28;20046;-71
2024/03/02 06:23:44;;;;;;;17.10;7.32;;;;;;;1.82;56.91;100194.97;4960550;28;20861;-69
2024/03/02 06:26:09;;;;;;;16.17;7.70;;;;;;;1.92;56.59;100193.09;4929815;28;20053;-71
2024/03/02 06:28:34;;;;;;;11.70;6.35;;;;;;;2.13;55.81;100197.06;4959185;28;20045;-69
2024/03/02 06:31:02;;;;;;;13.45;7.35;;;;;;;2.09;55.77;100200.59;4956331;28;20034;-70
2024/03/02 06:33:30;;;;;;;15.00;7.85;;;;;;;2.08;55.58;100198.88;4962844;28;20030;-67
2024/03/02 06:35:56;;;;;;;14.32;7.22;;;;;;;1.92;56.16;100199.09;4948008;28;20034;-77
2024/03/02 06:38:22;;;;;;;12.93;6.90;;;;;;;2.22;55.29;100201.22;4955666;28;20034;-75
2024/03/02 06:40:47;;;;;;;13.18;7.00;;;;;;;2.20;55.79;100202.97;4935420;28;20100;-69
2024/03/02 06:43:13;;;;;;;12.60;6.32;;;;;;;2.25;55.70;100207.19;4974480;28;20038;-73
2024/03/02 06:45:38;;;;;;;12.23;6.72;;;;;;;2.23;55.17;100208.94;4966369;28;20041;-71
2024/03/02 06:48:04;;;;;;;16.77;8.07;;;;;;;2.31;55.18;100207.09;4980574;28;20495;-69
2024/03/02 06:50:30;;;;;;;12.30;6.53;;;;;;;2.29;55.10;100208.84;4973803;28;20034;-73
2024/03/02 06:52:57;;;;;;;12.93;6.95;;;;;;;2.37;55.00;100210.44;4992548;28;20113;-72
2024/03/02 06:55:24;;;;;;;12.30;6.68;;;;;;;2.40;55.11;100215.53;4986161;28;20581;-72
2024/03/02 06:57:52;;;;;;;16.63;7.57;;;;;;;2.40;54.87;100210.38;4997948;28;20066;-71
2024/03/02 07:00:20;;;;;;;10.35;5.22;;;;;;;2.32;55.21;100219.09;4988982;28;20138;-71
2024/03/02 07:02:46;;;;;;;11.18;5.88;;;;;;;2.56;54.61;100214.44;4958773;28;20738;-70
2024/03/02 07:05:11;;;;;;;13.70;6.35;;;;;;;2.60;54.48;100216.06;4967107;28;20099;-70
2024/03/02 07:07:37;;;;;;;13.82;6.85;;;;;;;2.58;54.63;100220.41;4961014;28;20120;-71
2024/03/02 07:10:04;;;;;;;12.25;7.53;;;;;;;2.69;54.39;100222.78;4966857;28;20045;-70
2024/03/02 07:12:31;;;;;;;11.98;6.22;;;;;;;2.66;54.48;100218.53;4962320;28;20086;-77
2024/03/02 07:17:29;;;;;;;13.68;5.47;;;;;;;3.74;52.32;100221.63;4948616;28;20077;-69
2024/03/02 07:19:55;;;;;;;10.27;5.32;;;;;;;4.67;50.03;100226.28;4950184;28;20070;-72
2024/03/02 07:22:21;;;;;;;11.70;5.60;;;;;;;5.49;47.55;100227.53;4956515;28;20173;-69
2024/03/02 07:24:47;;;;;;;9.82;4.85;;;;;;;6.42;44.99;100231.59;4952012;28;20034;-70
2024/03/02 07:27:13;;;;;;;10.20;5.88;;;;;;;7.16;43.96;100228.22;4941096;28;20049;-68
2024/03/02 07:29:40;;;;;;;9.07;5.13;;;;;;;7.90;41.41;100221.13;4951325;28;20081;-69
2024/03/02 07:32:06;;;;;;;9.38;5.20;;;;;;;8.23;40.53;100233.72;4952322;28;20052;-67
2024/03/02 07:34:32;;;;;;;9.60;5.88;;;;;;;8.58;40.42;100227.03;4955147;28;20189;-69
2024/03/02 07:36:58;;;;;;;6.30;4.50;;;;;;;8.81;39.74;100226.13;4939583;28;20069;-67
2024/03/02 07:39:24;;;;;;;6.70;5.13;;;;;;;9.02;39.87;100231.31;4961660;28;20042;-68
2024/03/02 07:41:50;;;;;;;9.27;4.50;;;;;;;9.19;39.12;100231.41;4959600;28;20053;-69
2024/03/02 07:44:16;;;;;;;6.70;4.38;;;;;;;9.36;38.44;100231.47;4963503;28;20026;-68
2024/03/02 07:46:43;;;;;;;6.65;4.88;;;;;;;9.89;37.48;100231.72;4965783;28;20042;-69
2024/03/02 07:49:09;;;;;;;6.60;4.45;;;;;;;10.29;36.79;100238.50;4962608;28;20022;-69
2024/03/02 07:51:36;;;;;;;7.72;4.43;;;;;;;10.62;36.11;100237.75;4943659;28;20057;-71
2024/03/02 07:54:02;;;;;;;6.47;4.75;;;;;;;11.29;34.59;100233.44;4958669;28;20030;-70
2024/03/02 07:56:27;;;;;;;7.85;4.75;;;;;;;11.33;34.97;100234.09;4967927;28;20034;-70
2024/03/02 07:58:53;;;;;;;7.10;4.78;;;;;;;11.13;35.26;100236.03;4960181;28;20499;-70
2024/03/02 08:01:19;;;;;;;6.93;4.35;;;;;;;10.75;35.93;100243.19;4962726;28;20038;-67
2024/03/02 08:03:48;;;;;;;6.45;4.40;;;;;;;11.32;35.19;100241.13;4966293;28;20037;-70
2024/03/02 08:06:17;;;;;;;7.30;4.30;;;;;;;12.28;33.69;100248.06;4977503;28;20044;-71
2024/03/02 08:08:43;;;;;;;9.88;4.35;;;;;;;12.55;32.92;100252.66;4971805;28;20298;-72
2024/03/02 08:11:08;;;;;;;5.18;4.00;;;;;;;12.74;32.26;100256.88;4963818;28;20046;-70
2024/03/02 08:13:34;;;;;;;4.78;3.45;;;;;;;13.10;32.25;100257.28;4963895;28;20045;-70
2024/03/02 08:16:00;;;;;;;5.63;3.53;;;;;;;13.25;31.46;100262.53;4976684;28;20041;-70
2024/03/02 08:18:25;;;;;;;6.68;3.97;;;;;;;13.83;31.00;100264.19;4965788;28;20044;-70
2024/03/02 08:20:51;;;;;;;8.13;4.00;;;;;;;14.37;30.52;100273.88;4962094;28;20175;-70
2024/03/02 08:23:17;;;;;;;6.65;3.53;;;;;;;14.53;30.38;100265.84;4972082;28;20041;-67
2024/03/02 08:25:43;;;;;;;7.78;4.15;;;;;;;13.72;30.55;100267.50;4964779;28;20037;-67
2024/03/02 08:28:11;;;;;;;5.00;3.08;;;;;;;14.01;30.55;100266.56;4971546;28;20104;-68
2024/03/02 08:30:36;;;;;;;5.72;4.25;;;;;;;13.59;30.85;100277.09;4960647;28;20042;-67
2024/03/02 08:33:02;;;;;;;4.75;3.78;;;;;;;12.18;33.45;100280.97;4961783;28;20033;-70
2024/03/02 08:35:28;;;;;;;4.22;3.30;;;;;;;11.25;35.73;100279.00;4966248;28;20121;-69
2024/03/02 08:37:53;;;;;;;4.85;3.80;;;;;;;11.63;34.65;100289.19;4959175;28;20030;-69
2024/03/02 08:40:19;;;;;;;7.63;3.90;;;;;;;12.14;33.97;100287.31;4940814;28;20708;-71
2024/03/02 08:42:45;;;;;;;5.90;4.05;;;;;;;11.81;34.38;100293.47;4952830;28;20119;-69
2024/03/02 08:45:11;;;;;;;6.60;4.07;;;;;;;10.28;36.61;100285.56;4952202;28;20303;-69
2024/03/02 08:47:37;;;;;;;4.50;2.95;;;;;;;9.24;38.75;100296.41;4945656;28;20041;-70
2024/03/02 08:50:03;;;;;;;7.35;4.32;;;;;;;9.28;39.66;100293.59;4946583;28;20041;-69
2024/03/02 08:52:29;;;;;;;7.28;3.95;;;;;;;8.73;40.31;100293.31;4952326;28;20053;-70
2024/03/02 08:54:54;;;;;;;6.55;3.65;;;;;;;8.87;40.14;100298.78;4959657;28;20370;-70
2024/03/02 08:57:20;;;;;;;6.05;4.05;;;;;;;9.01;40.16;100295.63;4965815;28;20515;-70
2024/03/02 08:59:46;;;;;;;7.60;4.22;;;;;;;8.52;40.45;100298.47;4980541;28;20498;-70
2024/03/02 09:02:11;;;;;;;5.97;3.42;;;;;;;8.67;40.78;100302.22;4959543;28;20042;-69
2024/03/02 09:04:37;;;;;;;8.07;4.40;;;;;;;8.44;41.14;100312.72;4961016;28;20634;-69
2024/03/02 09:07:03;;;;;;;5.72;3.42;;;;;;;8.53;41.09;100309.75;4959317;28;20038;-69
2024/03/02 09:09:28;;;;;;;7.45;3.65;;;;;;;8.76;40.99;100314.03;4964671;28;20113;-69
2024/03/02 09:11:57;;;;;;;6.38;4.05;;;;;;;8.83;41.03;100319.84;4956141;28;20201;-69
2024/03/02 09:14:23;;;;;;;6.57;3.30;;;;;;;8.90;40.96;100319.53;4966525;28;20026;-70
2024/03/02 09:16:49;;;;;;;6.22;3.67;;;;;;;8.47;41.44;100326.47;4957598;28;20035;-69
2024/03/02 09:19:14;;;;;;;5.82;3.38;;;;;;;8.50;41.99;100328.94;4981144;28;20430;-70
2024/03/02 09:21:42;;;;;;;6.72;3.08;;;;;;;9.18;40.72;100323.56;4957844;28;20038;-67
2024/03/02 09:24:08;;;;;;;6.40;3.67;;;;;;;9.40;39.92;100324.31;4963515;28;20030;-69
2024/03/02 09:26:33;;;;;;;5.50;3.50;;;;;;;9.64;39.95;100332.00;4958470;28;20096;-67
2024/03/02 09:28:59;;;;;;;8.43;3.83;;;;;;;9.04;40.83;100325.94;4956938;28;20028;-67
2024/03/02 09:31:25;;;;;;;7.53;3.92;;;;;;;9.51;40.14;100328.25;4963170;28;20390;-69
2024/03/02 09:33:51;;;;;;;5.40;3.53;;;;;;;9.34;40.66;100329.84;4961890;28;20983;-67
2024/03/02 09:36:20;;;;;;;4.57;3.53;;;;;;;8.91;40.98;100334.25;4964808;28;20046;-69
2024/03/02 09:38:46;;;;;;;4.28;3.20;;;;;;;9.09;41.01;100330.03;4958109;28;20074;-70
2024/03/02 09:41:12;;;;;;;4.65;3.10;;;;;;;9.88;39.73;100326.59;4967632;28;20129;-69
2024/03/02 09:43:40;;;;;;;5.20;3.42;;;;;;;11.07;37.81;100335.72;4960326;28;20057;-70
2024/03/02 09:46:06;;;;;;;6.85;3.63;;;;;;;11.31;37.22;100317.94;4958655;28;20065;-70
2024/03/02 09:48:31;;;;;;;6.38;3.22;;;;;;;11.05;37.21;100325.31;4955684;28;20030;-70
2024/03/02 09:50:57;;;;;;;3.15;2.35;;;;;;;10.94;37.80;100324.19;4954224;28;20060;-69
2024/03/02 09:53:23;;;;;;;4.68;2.28;;;;;;;10.92;36.60;100324.25;4959766;28;20042;-69
2024/03/02 09:55:52;;;;;;;3.58;2.10;;;;;;;11.20;37.08;100322.88;4959181;28;20080;-69
2024/03/02 09:58:18;;;;;;;4.13;2.55;;;;;;;11.99;36.06;100322.19;4966239;28;20041;-69
2024/03/02 10:00:43;;;;;;;13.77;3.72;;;;;;;11.76;36.60;100321.66;4954973;28;20037;-69
2024/03/02 10:03:12;;;;;;;5.25;2.65;;;;;;;11.57;35.35;100320.94;4962725;28;20052;-69
2024/03/02 10:05:38;;;;;;;5.07;2.70;;;;;;;12.57;34.11;100312.84;4960251;28;20191;-70
2024/03/02 10:08:04;;;;;;;7.38;2.95;;;;;;;12.32;33.81;100310.78;4957050;28;20510;-68
2024/03/02 10:10:43;;;;;;;5.57;2.90;;;;;;;12.04;35.42;100322.78;4961099;28;21001;-66
2024/03/02 10:13:13;;;;;;;3.80;2.35;;;;;;;11.31;36.18;100319.66;4960748;28;20034;-67
2024/03/02 10:15:40;;;;;;;4.38;2.67;;;;;;;11.66;35.22;100317.81;4952521;28;20045;-68
2024/03/02 10:18:11;;;;;;;4.70;2.50;;;;;;;12.01;34.94;100320.34;4955125;28;20031;-69
2024/03/02 10:20:39;;;;;;;4.60;2.33;;;;;;;11.07;35.56;100313.97;4957759;28;20119;-68
2024/03/02 10:23:11;;;;;;;3.45;2.50;;;;;;;11.86;35.06;100317.63;4954452;28;20403;-68
2024/03/02 10:25:41;;;;;;;2.72;1.77;;;;;;;12.28;34.27;100307.50;4953989;28;20096;-68
2024/03/02 10:28:07;;;;;;;6.70;2.38;;;;;;;12.26;33.46;100318.03;4952756;28;20053;-68
2024/03/02 10:30:34;;;;;;;5.47;2.55;;;;;;;11.91;34.59;100314.78;4963611;28;20105;-69
2024/03/02 10:33:05;;;;;;;4.18;2.72;;;;;;;11.55;34.93;100304.47;4969983;28;20351;-68
2024/03/02 10:35:32;;;;;;;6.13;2.33;;;;;;;11.58;35.32;100299.91;4960434;28;20050;-68
2024/03/02 10:38:03;;;;;;;5.05;3.13;;;;;;;12.36;33.97;100310.53;4949713;28;20037;-68
2024/03/02 10:40:30;;;;;;;2.63;2.38;;;;;;;11.79;35.13;100300.56;4973142;28;20073;-69
2024/03/02 10:42:57;;;;;;;6.65;3.25;;;;;;;12.01;34.97;100304.63;4963431;28;20759;-69
2024/03/02 10:45:24;;;;;;;7.55;3.90;;;;;;;12.18;34.71;100291.44;4978876;28;20038;-69
2024/03/02 10:47:50;;;;;;;4.38;2.00;;;;;;;12.15;33.90;100288.97;4958364;28;20258;-69
2024/03/02 10:50:17;;;;;;;3.63;2.03;;;;;;;11.61;34.58;100296.28;4962145;28;20123;-69
2024/03/02 10:52:43;;;;;;;2.80;2.25;;;;;;;12.08;34.66;100290.25;4956331;28;20133;-68
2024/03/02 10:55:15;;;;;;;4.60;2.33;;;;;;;11.80;34.41;100291.78;4955961;28;20041;-68
2024/03/02 10:57:54;;;;;;;4.18;2.25;;;;;;;11.83;34.73;100294.22;4954212;28;20037;-68
2024/03/02 11:00:26;;;;;;;4.13;2.47;;;;;;;12.79;33.28;100287.13;4959932;28;20045;-69
2024/03/02 11:02:58;;;;;;;3.28;2.13;;;;;;;13.60;32.80;100293.66;4974388;28;20506;-68
2024/03/02 11:05:31;;;;;;;3.40;2.30;;;;;;;12.84;33.27;100294.72;4983747;28;20061;-69
2024/03/02 11:08:05;;;;;;;3.92;2.72;;;;;;;12.16;33.67;100302.94;4969845;28;20585;-69
2024/03/02 11:10:36;;;;;;;4.28;2.40;;;;;;;12.06;33.88;100305.22;4970879;28;20036;-68
2024/03/02 11:13:08;;;;;;;4.88;2.78;;;;;;;12.74;33.19;100304.06;4967175;28;20171;-71
2024/03/02 11:15:36;;;;;;;3.40;2.40;;;;;;;12.77;32.90;100309.13;4980182;28;20045;-69
2024/03/02 11:18:08;;;;;;;3.60;2.42;;;;;;;12.25;33.71;100302.44;4979687;28;20073;-67
2024/03/02 11:20:37;;;;;;;4.07;2.45;;;;;;;12.30;33.43;100305.63;4995614;28;20556;-70
2024/03/02 11:23:07;;;;;;;4.97;2.80;;;;;;;12.85;33.89;100302.50;4963139;28;20029;-71
2024/03/02 11:25:33;;;;;;;9.80;2.97;;;;;;;12.35;34.04;100302.75;4979897;28;20160;-68
2024/03/02 11:28:06;;;;;;;3.90;1.98;;;;;;;12.70;32.39;100306.00;4982382;28;20132;-69
2024/03/02 11:30:31;;;;;;;5.50;2.55;;;;;;;12.57;33.69;100312.84;4978067;28;20101;-71
2024/03/02 11:32:57;;;;;;;2.05;1.48;;;;;;;12.36;33.45;100310.53;4968714;28;20087;-69